Terminal Aerodrome Forecast
Issued by NWS

Current Version | Previous Version | Text Only | Print | Product List | Glossary On
Versions: 1 2 3 4 5 6 7 8 9 10 11 12 13 14 15 16
000
FTUS46 KSTO 200300 AAB
TAFMHR
TAF AMD
KMHR 200314Z 2003/2024 12005KT P6SM OVC030
      TEMPO 2003/2007 5SM BR OVC005
     FM200700 14005KT 5SM BR OVC005
      TEMPO 2007/2011 3SM -SHRA BR OVC015
     FM201700 15005KT P6SM VCSH OVC025=

USA.gov is the U.S. government's official web portal to all federal, state and local government web resources and services.